createdAt,value
2018-09-11T00:01:25.635Z,6.83
2018-09-11T00:03:54.670Z,7.20
2018-09-11T00:06:23.693Z,6.70
2018-09-11T00:08:52.758Z,7.20
2018-09-11T00:11:21.841Z,7.43
2018-09-11T00:13:50.925Z,6.47
2018-09-11T00:16:19.991Z,7.53
2018-09-11T00:18:49.054Z,7.17
2018-09-11T00:21:18.065Z,6.87
2018-09-11T00:23:47.108Z,6.97
2018-09-11T00:26:16.229Z,6.50
2018-09-11T00:28:45.338Z,7.23
2018-09-11T00:31:14.417Z,7.10
2018-09-11T00:33:43.537Z,6.90
2018-09-11T00:36:12.582Z,6.83
2018-09-11T00:38:41.652Z,7.37
2018-09-11T00:41:10.666Z,7.80
2018-09-11T00:43:39.736Z,7.30
2018-09-11T00:46:08.768Z,7.03
2018-09-11T00:48:37.763Z,6.30
2018-09-11T00:51:06.777Z,6.80
2018-09-11T00:53:35.736Z,6.27
2018-09-11T00:56:04.731Z,6.20
2018-09-11T00:58:33.687Z,6.80
2018-09-11T01:01:02.649Z,6.43
2018-09-11T01:03:31.633Z,6.50
2018-09-11T01:06:00.580Z,6.53
2018-09-11T01:08:29.548Z,6.67
2018-09-11T01:10:58.523Z,6.87
2018-09-11T01:13:27.476Z,6.47
2018-09-11T01:15:56.598Z,6.90
2018-09-11T01:18:25.605Z,6.23
2018-09-11T01:20:54.599Z,6.93
2018-09-11T01:23:23.572Z,6.17
2018-09-11T01:25:52.521Z,6.27
2018-09-11T01:28:21.632Z,6.13
2018-09-11T01:30:50.605Z,6.40
2018-09-11T01:33:19.568Z,5.90
2018-09-11T01:35:48.539Z,6.40
2018-09-11T01:38:17.560Z,6.17
2018-09-11T01:40:46.774Z,5.90
2018-09-11T01:43:15.757Z,6.37
2018-09-11T01:45:44.721Z,6.60
2018-09-11T01:48:13.632Z,5.90
2018-09-11T01:50:42.491Z,6.90
2018-09-11T01:53:11.405Z,6.30
2018-09-11T01:55:40.279Z,6.13
2018-09-11T01:58:09.328Z,6.20
2018-09-11T02:00:38.296Z,6.40
2018-09-11T02:03:07.212Z,6.10
2018-09-11T02:05:36.081Z,6.30
2018-09-11T02:08:05.012Z,6.60
2018-09-11T02:10:34.081Z,5.97
2018-09-11T02:13:02.981Z,5.27
2018-09-11T02:15:31.868Z,6.33
2018-09-11T02:18:00.832Z,6.03
2018-09-11T02:20:29.770Z,6.13
2018-09-11T02:22:58.680Z,6.20
2018-09-11T02:25:27.569Z,5.80
2018-09-11T02:27:57.692Z,6.80
2018-09-11T02:30:26.776Z,6.17
2018-09-11T02:32:55.673Z,5.47
2018-09-11T02:35:24.628Z,5.97
2018-09-11T02:37:53.530Z,5.67
2018-09-11T02:40:22.528Z,6.20
2018-09-11T02:42:51.456Z,6.00
2018-09-11T02:45:23.085Z,6.20
2018-09-11T02:47:52.877Z,5.80
2018-09-11T02:50:21.904Z,6.33
2018-09-11T02:52:50.989Z,6.10
2018-09-11T02:55:19.927Z,6.33
2018-09-11T02:57:48.949Z,6.23
2018-09-11T03:00:17.847Z,6.20
2018-09-11T03:02:46.696Z,6.17
2018-09-11T03:05:15.604Z,5.90
2018-09-11T03:07:44.459Z,5.90
2018-09-11T03:10:13.517Z,6.13
2018-09-11T03:12:42.437Z,6.30
2018-09-11T03:15:11.325Z,6.10
2018-09-11T03:17:40.249Z,5.87
2018-09-11T03:20:09.132Z,5.30
2018-09-11T03:22:38.136Z,5.97
2018-09-11T03:25:07.008Z,5.53
2018-09-11T03:27:35.880Z,5.53
2018-09-11T03:30:05.004Z,5.60
2018-09-11T03:32:33.884Z,6.33
2018-09-11T03:35:02.912Z,6.00
2018-09-11T03:37:31.833Z,5.50
2018-09-11T03:40:00.762Z,5.13
2018-09-11T03:42:29.664Z,5.53
2018-09-11T03:44:58.553Z,5.10
2018-09-11T03:47:27.560Z,5.73
2018-09-11T03:49:56.429Z,5.13
2018-09-11T03:52:25.282Z,5.40
2018-09-11T03:54:54.189Z,5.13
2018-09-11T03:57:23.082Z,5.70
2018-09-11T03:59:52.012Z,5.60
2018-09-11T04:02:20.861Z,5.60
2018-09-11T04:04:49.848Z,5.70
2018-09-11T04:07:18.722Z,5.60
2018-09-11T04:09:48.331Z,5.87
2018-09-11T04:12:17.640Z,5.30
2018-09-11T04:14:46.459Z,5.57
2018-09-11T04:17:15.376Z,5.80
2018-09-11T04:19:44.260Z,5.53
2018-09-11T04:22:13.456Z,5.93
2018-09-11T04:24:42.317Z,5.60
2018-09-11T04:27:11.215Z,5.70
2018-09-11T04:29:40.093Z,5.10
2018-09-11T04:32:08.995Z,5.67
2018-09-11T04:34:37.872Z,6.07
2018-09-11T04:37:06.784Z,5.63
2018-09-11T04:39:35.766Z,5.03
2018-09-11T04:42:04.669Z,5.00
2018-09-11T04:44:33.561Z,5.47
2018-09-11T04:47:02.548Z,5.07
2018-09-11T04:49:31.468Z,5.23
2018-09-11T04:52:00.410Z,5.30
2018-09-11T04:54:29.459Z,4.93
2018-09-11T04:56:58.283Z,4.80
2018-09-11T04:59:27.229Z,5.10
2018-09-11T05:01:56.189Z,5.50
2018-09-11T05:04:25.097Z,5.63
2018-09-11T05:06:54.073Z,5.50
2018-09-11T05:09:22.993Z,5.27
2018-09-11T05:11:51.944Z,4.77
2018-09-11T05:14:20.869Z,4.60
2018-09-11T05:16:49.728Z,4.90
2018-09-11T05:19:18.761Z,5.67
2018-09-11T05:21:47.677Z,6.33
2018-09-11T05:24:16.684Z,5.23
2018-09-11T05:26:45.605Z,4.97
2018-09-11T05:29:14.477Z,5.10
2018-09-11T05:31:43.457Z,5.43
2018-09-11T05:34:12.388Z,5.27
2018-09-11T05:36:41.304Z,4.93
2018-09-11T05:39:10.983Z,5.00
2018-09-11T05:41:39.882Z,4.93
2018-09-11T05:44:08.844Z,5.30
2018-09-11T05:46:37.725Z,7.23
2018-09-11T05:49:06.701Z,5.37
2018-09-11T05:51:35.689Z,5.63
2018-09-11T05:54:04.607Z,6.90
2018-09-11T05:56:33.543Z,7.50
2018-09-11T05:59:02.465Z,7.53
2018-09-11T06:01:31.424Z,7.00
2018-09-11T06:04:00.351Z,6.17
2018-09-11T06:06:29.177Z,7.40
2018-09-11T06:08:58.101Z,7.70
2018-09-11T06:11:26.976Z,7.07
2018-09-11T06:13:55.898Z,9.13
2018-09-11T06:16:25.397Z,8.63
2018-09-11T06:18:54.269Z,9.33
2018-09-11T06:21:23.195Z,7.50
2018-09-11T06:23:52.061Z,6.70
2018-09-11T06:26:20.997Z,6.33
2018-09-11T06:28:49.869Z,6.37
2018-09-11T06:31:18.781Z,5.73
2018-09-11T06:33:47.698Z,6.10
2018-09-11T06:36:16.616Z,9.13
2018-09-11T06:38:45.521Z,7.47
2018-09-11T06:41:14.488Z,6.17
2018-09-11T06:43:43.414Z,6.90
2018-09-11T06:46:12.392Z,6.33
2018-09-11T06:48:41.265Z,5.80
2018-09-11T06:51:10.221Z,7.37
2018-09-11T06:53:39.106Z,6.27
2018-09-11T06:56:07.989Z,5.80
2018-09-11T06:58:36.908Z,7.03
2018-09-11T07:01:05.798Z,8.47
2018-09-11T07:03:34.756Z,7.53
2018-09-11T07:06:03.662Z,4.70
2018-09-11T07:08:32.618Z,5.27
2018-09-11T07:11:01.501Z,4.83
2018-09-11T07:13:30.441Z,4.70
2018-09-11T07:15:59.656Z,5.40
2018-09-11T07:18:29.076Z,5.83
2018-09-11T07:20:58.076Z,5.87
2018-09-11T07:23:26.964Z,5.37
2018-09-11T07:25:55.895Z,5.00
2018-09-11T07:28:24.834Z,5.30
2018-09-11T07:30:53.772Z,4.50
2018-09-11T07:33:22.720Z,5.07
2018-09-11T07:35:51.616Z,5.57
2018-09-11T07:38:20.562Z,5.40
2018-09-11T07:40:49.488Z,5.10
2018-09-11T07:43:18.409Z,5.33
2018-09-11T07:45:47.293Z,4.77
2018-09-11T07:48:16.193Z,4.60
2018-09-11T07:50:45.158Z,5.20
2018-09-11T07:53:14.094Z,5.03
2018-09-11T07:55:42.984Z,4.90
2018-09-11T07:58:11.968Z,5.00
2018-09-11T08:00:40.892Z,4.77
2018-09-11T08:03:09.900Z,4.23
2018-09-11T08:05:38.806Z,4.53
2018-09-11T08:08:07.700Z,3.90
2018-09-11T08:10:36.661Z,4.27
2018-09-11T08:13:05.582Z,4.20
2018-09-11T08:15:34.553Z,4.77
2018-09-11T08:18:03.565Z,4.70
2018-09-11T08:20:32.456Z,4.27
2018-09-11T08:23:01.429Z,4.30
2018-09-11T08:25:30.296Z,3.90
2018-09-11T08:27:59.189Z,4.70
2018-09-11T08:30:31.451Z,4.40
2018-09-11T08:33:01.177Z,4.67
2018-09-11T08:35:30.281Z,4.50
2018-09-11T08:37:59.453Z,4.63
2018-09-11T08:40:28.369Z,4.93
2018-09-11T08:42:57.292Z,4.60
2018-09-11T08:45:26.225Z,4.73
2018-09-11T08:47:55.142Z,4.83
2018-09-11T08:50:24.053Z,4.83
2018-09-11T08:52:53.029Z,5.10
2018-09-11T08:55:21.910Z,5.00
2018-09-11T08:57:50.828Z,4.97
2018-09-11T09:00:19.773Z,5.20
2018-09-11T09:02:49.242Z,4.10
2018-09-11T09:05:18.169Z,4.33
2018-09-11T09:07:47.105Z,4.50
2018-09-11T09:10:16.105Z,4.57
2018-09-11T09:12:45.031Z,4.50
2018-09-11T09:15:14.054Z,4.70
2018-09-11T09:17:43.021Z,4.10
2018-09-11T09:20:12.101Z,4.37
2018-09-11T09:22:41.134Z,4.28
2018-09-11T09:25:10.113Z,4.47
2018-09-11T09:27:39.226Z,3.90
2018-09-11T09:30:08.616Z,3.95
2018-09-11T09:32:37.671Z,4.47
2018-09-11T09:35:06.695Z,4.05
2018-09-11T09:37:35.695Z,4.50
2018-09-11T09:40:04.810Z,4.65
2018-09-11T09:42:33.870Z,4.08
2018-09-11T09:45:02.918Z,4.17
2018-09-11T09:47:31.896Z,4.58
2018-09-11T09:50:00.867Z,4.22
2018-09-11T09:52:29.971Z,4.45
2018-09-11T09:54:58.929Z,4.12
2018-09-11T09:57:27.981Z,4.20
2018-09-11T09:59:56.891Z,4.35
2018-09-11T10:02:25.909Z,4.40
2018-09-11T10:04:55.424Z,3.92
2018-09-11T10:07:24.903Z,4.47
2018-09-11T10:09:54.365Z,4.22
2018-09-11T10:12:23.350Z,3.87
2018-09-11T10:14:52.424Z,4.12
2018-09-11T10:17:21.357Z,4.10
2018-09-11T10:19:50.237Z,4.33
2018-09-11T10:22:19.164Z,4.45
2018-09-11T10:24:48.127Z,3.87
2018-09-11T10:27:17.092Z,3.80
2018-09-11T10:29:46.084Z,3.80
2018-09-11T10:32:15.101Z,3.40
2018-09-11T10:34:44.139Z,4.10
2018-09-11T10:37:13.065Z,3.90
2018-09-11T10:39:41.996Z,3.17
2018-09-11T10:42:11.041Z,3.55
2018-09-11T10:44:40.392Z,3.50
2018-09-11T10:47:09.376Z,3.55
2018-09-11T10:49:38.382Z,3.25
2018-09-11T10:52:07.681Z,3.25
2018-09-11T10:54:36.655Z,3.45
2018-09-11T10:57:05.596Z,3.62
2018-09-11T10:59:34.541Z,3.77
2018-09-11T11:02:03.564Z,3.40
2018-09-11T11:04:32.533Z,3.40
2018-09-11T11:07:01.502Z,3.77
2018-09-11T11:09:30.417Z,3.58
2018-09-11T11:11:59.352Z,3.62
2018-09-11T11:14:28.338Z,3.33
2018-09-11T11:16:57.275Z,3.37
2018-09-11T11:19:26.318Z,3.40
2018-09-11T11:21:55.245Z,3.52
2018-09-11T11:24:24.529Z,3.12
2018-09-11T11:26:53.698Z,3.33
2018-09-11T11:29:23.409Z,3.42
2018-09-11T11:31:53.012Z,3.25
2018-09-11T11:34:22.116Z,3.40
2018-09-11T11:36:51.270Z,3.15
2018-09-11T11:39:20.089Z,3.30
2018-09-11T11:41:49.045Z,3.50
2018-09-11T11:44:17.920Z,3.40
2018-09-11T11:46:46.838Z,3.02
2018-09-11T11:49:15.773Z,3.45
2018-09-11T11:51:44.702Z,2.77
2018-09-11T11:54:13.609Z,2.90
2018-09-11T11:56:42.489Z,3.20
2018-09-11T11:59:11.367Z,3.17
2018-09-11T12:01:40.593Z,2.85
2018-09-11T12:04:09.531Z,2.92
2018-09-11T12:06:38.655Z,3.22
2018-09-11T12:09:10.700Z,2.95
2018-09-11T12:11:39.645Z,3.15
2018-09-11T12:14:08.802Z,2.90
2018-09-11T12:16:37.728Z,3.27
2018-09-11T12:19:06.752Z,3.10
2018-09-11T12:21:36.146Z,3.08
2018-09-11T12:24:05.086Z,3.37
2018-09-11T12:26:34.053Z,3.27
2018-09-11T12:29:07.752Z,3.30
2018-09-11T12:31:36.703Z,2.95
2018-09-11T12:34:05.747Z,3.27
2018-09-11T12:36:34.770Z,3.00
2018-09-11T12:39:04.847Z,2.92
2018-09-11T12:41:33.874Z,3.50
2018-09-11T12:44:02.934Z,3.45
2018-09-11T12:46:32.148Z,3.40
2018-09-11T12:49:00.928Z,3.52
2018-09-11T12:51:29.926Z,3.40
2018-09-11T12:53:58.829Z,3.65
2018-09-11T12:56:27.738Z,3.62
2018-09-11T12:58:56.726Z,3.50
2018-09-11T13:01:25.663Z,3.50
2018-09-11T13:03:54.654Z,3.00
2018-09-11T13:06:23.584Z,3.50
2018-09-11T13:08:52.857Z,3.50
2018-09-11T13:11:21.841Z,3.92
2018-09-11T13:13:50.899Z,3.25
2018-09-11T13:16:20.020Z,3.72
2018-09-11T13:18:48.985Z,3.60
2018-09-11T13:21:17.908Z,3.30
2018-09-11T13:23:46.848Z,3.62
2018-09-11T13:26:15.948Z,3.30
2018-09-11T13:28:44.875Z,3.05
2018-09-11T13:31:13.836Z,3.30
2018-09-11T13:33:43.430Z,3.62
2018-09-11T13:36:13.913Z,3.27
2018-09-11T13:38:42.805Z,3.52
2018-09-11T13:41:11.830Z,4.00
2018-09-11T13:43:40.756Z,3.60
2018-09-11T13:46:09.642Z,4.00
2018-09-11T13:48:38.520Z,3.10
2018-09-11T13:51:07.414Z,3.45
2018-09-11T13:53:36.281Z,3.92
2018-09-11T13:56:05.295Z,3.42
2018-09-11T13:58:34.207Z,4.00
2018-09-11T14:01:03.180Z,4.00
2018-09-11T14:03:32.086Z,3.75
2018-09-11T14:06:00.992Z,3.60
2018-09-11T14:08:29.962Z,3.92
2018-09-11T14:10:58.834Z,3.87
2018-09-11T14:13:27.897Z,3.70
2018-09-11T14:15:57.864Z,3.60
2018-09-11T14:18:26.778Z,3.87
2018-09-11T14:20:55.844Z,3.70
2018-09-11T14:23:24.740Z,3.87
2018-09-11T14:25:53.717Z,3.45
2018-09-11T14:28:22.677Z,3.72
2018-09-11T14:30:51.731Z,3.33
2018-09-11T14:33:20.633Z,3.33
2018-09-11T14:35:49.558Z,3.40
2018-09-11T14:38:18.642Z,3.30
2018-09-11T14:40:47.584Z,3.62
2018-09-11T14:43:16.515Z,3.15
2018-09-11T14:45:45.436Z,3.67
2018-09-11T14:48:14.393Z,3.40
2018-09-11T14:50:43.424Z,3.37
2018-09-11T14:53:12.312Z,3.15
2018-09-11T14:55:41.277Z,3.42
2018-09-11T14:58:10.198Z,3.37
2018-09-11T15:00:39.190Z,3.10
2018-09-11T15:03:08.310Z,3.20
2018-09-11T15:05:37.220Z,3.27
2018-09-11T15:08:06.525Z,3.10
2018-09-11T15:10:35.433Z,3.35
2018-09-11T15:13:04.365Z,3.33
2018-09-11T15:15:33.413Z,3.17
2018-09-11T15:18:02.377Z,3.25
2018-09-11T15:20:31.285Z,3.20
2018-09-11T15:23:01.143Z,3.22
2018-09-11T15:25:30.110Z,3.22
2018-09-11T15:27:59.065Z,3.20
2018-09-11T15:30:28.092Z,3.08
2018-09-11T15:32:57.030Z,3.50
2018-09-11T15:35:26.024Z,2.98
2018-09-11T15:37:54.897Z,3.40
2018-09-11T15:40:23.836Z,3.20
2018-09-11T15:42:52.782Z,3.47
2018-09-11T15:45:21.749Z,3.40
2018-09-11T15:47:50.689Z,3.10
2018-09-11T15:50:19.773Z,3.27
2018-09-11T15:52:48.664Z,3.60
2018-09-11T15:55:18.261Z,3.42
2018-09-11T15:57:47.653Z,3.00
2018-09-11T16:00:16.656Z,3.50
2018-09-11T16:02:45.546Z,3.35
2018-09-11T16:05:14.460Z,3.65
2018-09-11T16:07:43.558Z,3.45
2018-09-11T16:10:12.458Z,3.35
2018-09-11T16:12:41.365Z,3.85
2018-09-11T16:15:10.487Z,3.70
2018-09-11T16:17:39.766Z,4.85
2018-09-11T16:20:08.881Z,4.40
2018-09-11T16:22:37.809Z,3.90
2018-09-11T16:25:06.992Z,4.28
2018-09-11T16:27:36.035Z,6.03
2018-09-11T16:30:05.428Z,12.07
2018-09-11T16:32:34.858Z,14.60
2018-09-11T16:35:03.907Z,23.80
2018-09-11T16:37:33.016Z,24.80
2018-09-11T16:40:02.172Z,26.68
2018-09-11T16:42:31.108Z,22.42
2018-09-11T16:45:00.165Z,17.80
2018-09-11T16:47:29.357Z,12.58
2018-09-11T16:49:58.245Z,14.38
2018-09-11T16:52:27.828Z,9.55
2018-09-11T16:54:56.700Z,9.40
2018-09-11T16:57:25.645Z,7.65
2018-09-11T16:59:54.541Z,6.25
2018-09-11T17:02:23.758Z,5.20
2018-09-11T17:04:52.700Z,5.00
2018-09-11T17:07:22.129Z,4.70
2018-09-11T17:09:51.732Z,4.50
2018-09-11T17:12:20.682Z,5.40
2018-09-11T17:14:49.694Z,8.45
2018-09-11T17:17:19.340Z,7.37
2018-09-11T17:19:48.532Z,7.85
2018-09-11T17:22:17.461Z,7.03
2018-09-11T17:24:46.386Z,5.10
2018-09-11T17:27:15.385Z,5.10
2018-09-11T17:29:44.257Z,5.33
2018-09-11T17:32:13.179Z,5.53
2018-09-11T17:34:42.161Z,4.50
2018-09-11T17:37:11.124Z,4.53
2018-09-11T17:39:40.260Z,4.30
2018-09-11T17:42:09.573Z,5.10
2018-09-11T17:44:38.533Z,4.70
2018-09-11T17:47:07.425Z,4.58
2018-09-11T17:49:36.495Z,4.70
2018-09-11T17:52:06.528Z,4.25
2018-09-11T17:54:37.862Z,4.60
2018-09-11T17:57:06.797Z,4.67
2018-09-11T17:59:35.702Z,4.90
2018-09-11T18:02:04.640Z,5.33
2018-09-11T18:04:34.122Z,4.92
2018-09-11T18:07:03.045Z,4.85
2018-09-11T18:09:31.972Z,5.00
2018-09-11T18:12:01.002Z,4.90
2018-09-11T18:14:29.977Z,5.08
2018-09-11T18:16:58.887Z,4.40
2018-09-11T18:19:27.778Z,4.70
2018-09-11T18:21:56.742Z,4.87
2018-09-11T18:24:25.673Z,4.45
2018-09-11T18:26:54.539Z,5.47
2018-09-11T18:29:23.499Z,4.83
2018-09-11T18:31:52.485Z,5.10
2018-09-11T18:34:21.522Z,4.67
2018-09-11T18:36:50.540Z,5.23
2018-09-11T18:39:21.410Z,5.30
2018-09-11T18:41:50.510Z,4.67
2018-09-11T18:44:24.459Z,4.90
2018-09-11T18:46:55.357Z,5.13
2018-09-11T18:49:24.648Z,5.30
2018-09-11T18:51:54.607Z,5.50
2018-09-11T18:54:23.802Z,5.27
2018-09-11T18:56:52.818Z,5.50
2018-09-11T18:59:26.223Z,5.33
2018-09-11T19:01:56.408Z,5.43
2018-09-11T19:04:25.387Z,5.90
2018-09-11T19:06:54.322Z,5.13
2018-09-11T19:09:23.305Z,5.80
2018-09-11T19:11:52.536Z,5.23
2018-09-11T19:14:21.540Z,5.50
2018-09-11T19:16:50.665Z,4.80
2018-09-11T19:19:19.519Z,5.30
2018-09-11T19:21:48.484Z,5.40
2018-09-11T19:24:17.373Z,5.60
2018-09-11T19:26:46.492Z,5.77
2018-09-11T19:29:15.729Z,5.50
2018-09-11T19:31:45.512Z,5.50
2018-09-11T19:34:15.433Z,5.60
2018-09-11T19:36:44.504Z,5.80
2018-09-11T19:39:13.480Z,5.47
2018-09-11T19:41:42.646Z,5.07
2018-09-11T19:44:11.619Z,5.60
2018-09-11T19:46:40.620Z,5.63
2018-09-11T19:49:09.657Z,5.67
2018-09-11T19:51:39.518Z,5.10
2018-09-11T19:54:08.443Z,5.17
2018-09-11T19:56:37.333Z,5.23
2018-09-11T19:59:06.314Z,5.53
2018-09-11T20:01:36.673Z,5.60
2018-09-11T20:04:05.765Z,5.47
2018-09-11T20:06:35.709Z,5.30
2018-09-11T20:09:07.580Z,5.60
2018-09-11T20:11:40.063Z,5.60
2018-09-11T20:14:09.850Z,5.60
2018-09-11T20:16:39.281Z,5.60
2018-09-11T20:19:08.230Z,5.47
2018-09-11T20:21:37.216Z,4.73
2018-09-11T20:24:06.398Z,7.10
2018-09-11T20:26:35.404Z,5.43
2018-09-11T20:29:04.381Z,5.90
2018-09-11T20:31:35.801Z,5.60
2018-09-11T20:34:04.777Z,4.93
2018-09-11T20:36:34.252Z,5.83
2018-09-11T20:39:05.537Z,5.50
2018-09-11T20:41:34.519Z,5.60
2018-09-11T20:44:03.509Z,5.47
2018-09-11T20:46:32.578Z,5.67
2018-09-11T20:49:01.676Z,5.80
2018-09-11T20:51:30.704Z,5.37
2018-09-11T20:53:59.734Z,5.60
2018-09-11T20:56:28.769Z,6.03
2018-09-11T20:58:58.102Z,5.63
2018-09-11T21:01:28.273Z,5.43
2018-09-11T21:03:57.224Z,5.63
2018-09-11T21:06:26.122Z,5.60
2018-09-11T21:08:55.149Z,6.00
2018-09-11T21:11:24.737Z,5.80
2018-09-11T21:13:53.682Z,5.80
2018-09-11T21:16:22.649Z,5.57
2018-09-11T21:18:51.620Z,5.77
2018-09-11T21:21:20.534Z,4.97
2018-09-11T21:23:49.680Z,5.70
2018-09-11T21:26:18.578Z,5.30
2018-09-11T21:28:47.527Z,5.80
2018-09-11T21:31:16.594Z,5.63
2018-09-11T21:33:45.521Z,5.10
2018-09-11T21:36:14.573Z,5.70
2018-09-11T21:38:43.972Z,5.40
2018-09-11T21:41:13.499Z,5.10
2018-09-11T21:43:42.400Z,5.40
2018-09-11T21:46:11.374Z,5.30
2018-09-11T21:48:40.412Z,5.03
2018-09-11T21:51:09.392Z,5.60
2018-09-11T21:53:38.456Z,5.30
2018-09-11T21:56:07.437Z,5.23
2018-09-11T21:58:36.368Z,5.57
2018-09-11T22:01:10.697Z,5.60
2018-09-11T22:03:39.793Z,5.50
2018-09-11T22:06:09.125Z,5.70
2018-09-11T22:08:38.034Z,5.03
2018-09-11T22:11:07.536Z,5.77
2018-09-11T22:13:36.464Z,5.27
2018-09-11T22:16:05.341Z,5.00
2018-09-11T22:18:34.314Z,5.50
2018-09-11T22:21:07.877Z,5.47
2018-09-11T22:23:36.945Z,5.43
2018-09-11T22:26:07.451Z,5.63
2018-09-11T22:28:36.381Z,5.53
2018-09-11T22:31:07.728Z,5.20
2018-09-11T22:33:36.663Z,6.17
2018-09-11T22:36:08.117Z,5.60
2018-09-11T22:38:37.061Z,5.47
2018-09-11T22:41:06.398Z,5.23
2018-09-11T22:43:35.340Z,5.20
2018-09-11T22:46:07.820Z,5.53
2018-09-11T22:48:36.740Z,5.40
2018-09-11T22:51:06.276Z,5.40
2018-09-11T22:53:35.337Z,5.73
2018-09-11T22:56:04.894Z,5.40
2018-09-11T22:58:34.653Z,5.53
2018-09-11T23:01:04.936Z,5.10
2018-09-11T23:03:34.010Z,5.83
2018-09-11T23:06:05.945Z,5.40
2018-09-11T23:08:34.889Z,5.67
2018-09-11T23:11:05.181Z,5.10
2018-09-11T23:13:34.189Z,4.70
2018-09-11T23:16:06.029Z,5.30
2018-09-11T23:18:34.972Z,5.80
2018-09-11T23:21:03.986Z,5.33
2018-09-11T23:23:32.922Z,5.50
2018-09-11T23:26:02.059Z,5.33
2018-09-11T23:28:30.968Z,5.03
2018-09-11T23:30:59.985Z,5.30
2018-09-11T23:33:28.961Z,5.17
2018-09-11T23:35:57.952Z,5.20
2018-09-11T23:38:27.220Z,5.27
2018-09-11T23:40:56.168Z,5.37
2018-09-11T23:43:25.238Z,5.50
2018-09-11T23:45:54.346Z,4.83
2018-09-11T23:48:23.381Z,5.50
2018-09-11T23:50:52.317Z,5.13
2018-09-11T23:53:21.425Z,5.47
2018-09-11T23:55:50.382Z,4.87
2018-09-11T23:58:19.409Z,5.50
